Petersburg, IN (47567)

9:36 PM EDT on October 21, 2014 (GMT -0400)
1 Block West of Oakland City University | Change Station
CLOSE
Current Station
Personal Weather Station
Location: Oakland City, IN
Elevation: 490 ft
Nearby Weather Stations

Elev 490 ft 38.34 °N, 87.35 °W | Updated 2 seconds ago

Clear
Clear
50.5 °F
Feels Like 50.5 °F
N
1.0
Wind Variable Wind from North
Gusts 4.0 mph

Today
High -- | Low -- °F
--% Chance of Precip.
Yesterday
High -- | Low -- °F
Precip. -- in
8:04 AM 7:02 PM
Waning Crescent, 3% visible
Pressure 30.16 in
Visibility 10.0 miles
Clouds Clear
Dew Point 42 °F
Humidity 73%
Rainfall 0.00 in
Snow Depth Not available.
UV 0 out of 12
Pollen 2.20 out of 12
Air Quality Not available.
Flu Activity Sporadic
METAR KDCY 220115Z AUTO 04003KT 10SM CLR 09/06 A3016 RMK AO2 T00910055

More Conditions Fewer Conditions

Pressure 30.16 in
Visibility 10.0 miles
Clouds Clear
Dew Point 42 °F
Humidity 73%
Rainfall 0.00 in
Snow Depth Not available.
UV 0 out of 12
Pollen 2.20 out of 12
Air Quality Not available.
Flu Activity Sporadic
METAR KDCY 220115Z AUTO 04003KT 10SM CLR 09/06 A3016 RMK AO2 T00910055

More Conditions Fewer Conditions

10-Day Weather Forecast

Almanac

Astronomy

Oct. 21, 2014 Rise Set
Actual Time 8:04 AM EDT 7:02 PM EDT
Civil Twilight 7:37 AM EDT 7:29 PM EDT
Nautical Twilight 7:06 AM EDT 8:00 PM EDT
Astronomical Twilight 6:35 AM EDT 8:31 PM EDT
Moon 5:49 AM EDT (10/21) 5:55 PM EDT (10/21)
Length of Visible Light 11h 52m
Length of Day
10h 58m
Tomorrow will be 2m 21s shorter.
Waning Crescent, 3% of the Moon is Illuminated
Today
Waning Crescent
Oct 23
New
Oct 30
First Quarter
Nov 6
Full
Nov 14
Last Quarter

Community

WunderPhotos

Upload Photos

1,763,844 photos uploaded!

Nearby

Snow Depth

Station Depth Elevation
No new snow has been reported.

Earthquake Activity

City Distance Mag. Time & Date
No recent earthquake activity has been reported nearby.
Minimum magnitude displayed is 2.5.

Coastal Water Temperatures

Place Temperature
No Stations Reporting

Nearby Weather Stations